sensor_id;sensor_type;location;lat;lon;timestamp;P1;durP1;ratioP1;P2;durP2;ratioP2
40515;SDS011;26216;53.724;9.898;2022-08-14T00:00:47;2.38;;;1.80;;
40515;SDS011;26216;53.724;9.898;2022-08-14T00:03:25;2.42;;;1.77;;
40515;SDS011;26216;53.724;9.898;2022-08-14T00:05:53;2.17;;;1.70;;
40515;SDS011;26216;53.724;9.898;2022-08-14T00:08:20;4.25;;;2.50;;
40515;SDS011;26216;53.724;9.898;2022-08-14T00:10:46;2.78;;;1.95;;
40515;SDS011;26216;53.724;9.898;2022-08-14T00:13:13;2.25;;;1.88;;
40515;SDS011;26216;53.724;9.898;2022-08-14T00:15:41;3.00;;;2.00;;
40515;SDS011;26216;53.724;9.898;2022-08-14T00:18:10;1.75;;;1.50;;
40515;SDS011;26216;53.724;9.898;2022-08-14T00:20:39;2.03;;;1.50;;
40515;SDS011;26216;53.724;9.898;2022-08-14T00:23:06;1.90;;;1.63;;
40515;SDS011;26216;53.724;9.898;2022-08-14T00:25:33;2.13;;;1.60;;
40515;SDS011;26216;53.724;9.898;2022-08-14T00:27:59;2.70;;;1.50;;
40515;SDS011;26216;53.724;9.898;2022-08-14T00:30:26;2.10;;;1.80;;
40515;SDS011;26216;53.724;9.898;2022-08-14T00:32:53;2.28;;;1.50;;
40515;SDS011;26216;53.724;9.898;2022-08-14T00:35:18;1.83;;;1.58;;
40515;SDS011;26216;53.724;9.898;2022-08-14T00:37:44;2.58;;;1.50;;
40515;SDS011;26216;53.724;9.898;2022-08-14T00:40:11;1.90;;;1.70;;
40515;SDS011;26216;53.724;9.898;2022-08-14T00:42:39;2.83;;;1.80;;
40515;SDS011;26216;53.724;9.898;2022-08-14T00:45:06;2.75;;;1.75;;
40515;SDS011;26216;53.724;9.898;2022-08-14T00:47:33;2.58;;;1.70;;
40515;SDS011;26216;53.724;9.898;2022-08-14T00:49:59;2.42;;;1.90;;
40515;SDS011;26216;53.724;9.898;2022-08-14T00:52:27;2.60;;;1.70;;
40515;SDS011;26216;53.724;9.898;2022-08-14T00:54:53;2.90;;;1.98;;
40515;SDS011;26216;53.724;9.898;2022-08-14T00:57:21;2.83;;;1.70;;
40515;SDS011;26216;53.724;9.898;2022-08-14T00:59:48;2.22;;;1.63;;
40515;SDS011;26216;53.724;9.898;2022-08-14T01:02:16;2.38;;;1.60;;
40515;SDS011;26216;53.724;9.898;2022-08-14T01:04:48;2.30;;;1.65;;
40515;SDS011;26216;53.724;9.898;2022-08-14T01:07:17;1.90;;;1.60;;
40515;SDS011;26216;53.724;9.898;2022-08-14T01:09:51;2.70;;;1.80;;
40515;SDS011;26216;53.724;9.898;2022-08-14T01:12:19;2.90;;;1.90;;
40515;SDS011;26216;53.724;9.898;2022-08-14T01:14:46;1.98;;;1.60;;
40515;SDS011;26216;53.724;9.898;2022-08-14T01:17:20;1.92;;;1.55;;
40515;SDS011;26216;53.724;9.898;2022-08-14T01:19:47;3.03;;;2.03;;
40515;SDS011;26216;53.724;9.898;2022-08-14T01:22:32;2.05;;;1.50;;
40515;SDS011;26216;53.724;9.898;2022-08-14T01:24:58;3.40;;;1.92;;
40515;SDS011;26216;53.724;9.898;2022-08-14T01:27:25;3.10;;;1.77;;
40515;SDS011;26216;53.724;9.898;2022-08-14T01:29:55;4.00;;;1.73;;
40515;SDS011;26216;53.724;9.898;2022-08-14T01:32:22;3.10;;;1.63;;
40515;SDS011;26216;53.724;9.898;2022-08-14T01:34:48;1.90;;;1.52;;
40515;SDS011;26216;53.724;9.898;2022-08-14T01:37:18;1.92;;;1.52;;
40515;SDS011;26216;53.724;9.898;2022-08-14T01:39:46;3.20;;;1.90;;
40515;SDS011;26216;53.724;9.898;2022-08-14T01:42:13;2.92;;;1.50;;
40515;SDS011;26216;53.724;9.898;2022-08-14T01:44:46;2.05;;;1.60;;
40515;SDS011;26216;53.724;9.898;2022-08-14T01:47:16;2.55;;;1.38;;
40515;SDS011;26216;53.724;9.898;2022-08-14T01:49:43;3.13;;;1.80;;
40515;SDS011;26216;53.724;9.898;2022-08-14T01:52:09;4.18;;;1.40;;
40515;SDS011;26216;53.724;9.898;2022-08-14T01:54:37;2.78;;;1.40;;
40515;SDS011;26216;53.724;9.898;2022-08-14T01:57:03;1.40;;;1.30;;
40515;SDS011;26216;53.724;9.898;2022-08-14T01:59:36;1.92;;;1.40;;
40515;SDS011;26216;53.724;9.898;2022-08-14T02:02:06;1.85;;;1.58;;
40515;SDS011;26216;53.724;9.898;2022-08-14T02:04:39;3.13;;;1.70;;
40515;SDS011;26216;53.724;9.898;2022-08-14T02:07:06;1.77;;;1.65;;
40515;SDS011;26216;53.724;9.898;2022-08-14T02:09:36;1.90;;;1.70;;
40515;SDS011;26216;53.724;9.898;2022-08-14T02:12:06;2.53;;;1.60;;
40515;SDS011;26216;53.724;9.898;2022-08-14T02:14:33;2.10;;;1.67;;
40515;SDS011;26216;53.724;9.898;2022-08-14T02:17:00;2.28;;;1.80;;
40515;SDS011;26216;53.724;9.898;2022-08-14T02:19:27;2.25;;;1.42;;
40515;SDS011;26216;53.724;9.898;2022-08-14T02:21:55;1.70;;;1.58;;
40515;SDS011;26216;53.724;9.898;2022-08-14T02:24:23;3.15;;;1.60;;
40515;SDS011;26216;53.724;9.898;2022-08-14T02:26:53;2.10;;;1.65;;
40515;SDS011;26216;53.724;9.898;2022-08-14T02:29:22;1.70;;;1.45;;
40515;SDS011;26216;53.724;9.898;2022-08-14T02:31:53;2.53;;;1.60;;
40515;SDS011;26216;53.724;9.898;2022-08-14T02:34:25;2.17;;;1.55;;
40515;SDS011;26216;53.724;9.898;2022-08-14T02:36:54;2.15;;;1.70;;
40515;SDS011;26216;53.724;9.898;2022-08-14T02:39:26;2.17;;;1.80;;
40515;SDS011;26216;53.724;9.898;2022-08-14T02:41:56;2.13;;;1.70;;
40515;SDS011;26216;53.724;9.898;2022-08-14T02:44:23;2.20;;;1.90;;
40515;SDS011;26216;53.724;9.898;2022-08-14T02:46:50;2.45;;;1.50;;
40515;SDS011;26216;53.724;9.898;2022-08-14T02:49:20;2.10;;;1.57;;
40515;SDS011;26216;53.724;9.898;2022-08-14T02:51:50;2.85;;;2.03;;
40515;SDS011;26216;53.724;9.898;2022-08-14T02:54:17;2.55;;;1.70;;
40515;SDS011;26216;53.724;9.898;2022-08-14T02:56:44;2.15;;;1.65;;
40515;SDS011;26216;53.724;9.898;2022-08-14T02:59:09;2.55;;;1.90;;
40515;SDS011;26216;53.724;9.898;2022-08-14T03:01:38;3.33;;;1.85;;
40515;SDS011;26216;53.724;9.898;2022-08-14T03:04:05;2.55;;;2.22;;
40515;SDS011;26216;53.724;9.898;2022-08-14T03:06:31;3.03;;;2.17;;
40515;SDS011;26216;53.724;9.898;2022-08-14T03:08:57;2.67;;;1.85;;
40515;SDS011;26216;53.724;9.898;2022-08-14T03:11:24;2.95;;;1.88;;
40515;SDS011;26216;53.724;9.898;2022-08-14T03:13:50;2.13;;;1.80;;
40515;SDS011;26216;53.724;9.898;2022-08-14T03:16:18;2.35;;;1.63;;
40515;SDS011;26216;53.724;9.898;2022-08-14T03:21:18;2.17;;;1.80;;
40515;SDS011;26216;53.724;9.898;2022-08-14T03:23:50;2.75;;;1.65;;
40515;SDS011;26216;53.724;9.898;2022-08-14T03:26:28;2.03;;;1.50;;
40515;SDS011;26216;53.724;9.898;2022-08-14T03:28:54;3.80;;;1.63;;
40515;SDS011;26216;53.724;9.898;2022-08-14T03:31:19;1.88;;;1.65;;
40515;SDS011;26216;53.724;9.898;2022-08-14T03:33:48;3.53;;;1.67;;
40515;SDS011;26216;53.724;9.898;2022-08-14T03:36:15;2.13;;;1.52;;
40515;SDS011;26216;53.724;9.898;2022-08-14T03:38:45;1.73;;;1.58;;
40515;SDS011;26216;53.724;9.898;2022-08-14T03:41:13;1.88;;;1.30;;
40515;SDS011;26216;53.724;9.898;2022-08-14T03:43:50;1.50;;;1.40;;
40515;SDS011;26216;53.724;9.898;2022-08-14T03:46:24;2.83;;;1.50;;
40515;SDS011;26216;53.724;9.898;2022-08-14T03:48:52;1.67;;;1.35;;
40515;SDS011;26216;53.724;9.898;2022-08-14T03:51:19;1.98;;;1.20;;
40515;SDS011;26216;53.724;9.898;2022-08-14T03:53:46;2.17;;;1.58;;
40515;SDS011;26216;53.724;9.898;2022-08-14T03:56:13;2.75;;;1.48;;
40515;SDS011;26216;53.724;9.898;2022-08-14T03:58:42;4.03;;;1.77;;
40515;SDS011;26216;53.724;9.898;2022-08-14T04:01:11;2.38;;;1.27;;
40515;SDS011;26216;53.724;9.898;2022-08-14T04:03:38;1.52;;;1.33;;
40515;SDS011;26216;53.724;9.898;2022-08-14T04:06:05;1.85;;;1.45;;
40515;SDS011;26216;53.724;9.898;2022-08-14T04:08:39;4.43;;;1.67;;
40515;SDS011;26216;53.724;9.898;2022-08-14T04:11:06;5.32;;;1.75;;
40515;SDS011;26216;53.724;9.898;2022-08-14T04:13:34;1.90;;;1.45;;
40515;SDS011;26216;53.724;9.898;2022-08-14T04:16:06;2.60;;;1.70;;
40515;SDS011;26216;53.724;9.898;2022-08-14T04:18:41;1.83;;;1.60;;
40515;SDS011;26216;53.724;9.898;2022-08-14T04:21:09;2.88;;;1.33;;
40515;SDS011;26216;53.724;9.898;2022-08-14T04:23:36;2.05;;;1.40;;
40515;SDS011;26216;53.724;9.898;2022-08-14T04:26:04;1.60;;;1.50;;
40515;SDS011;26216;53.724;9.898;2022-08-14T04:28:33;2.50;;;1.50;;
40515;SDS011;26216;53.724;9.898;2022-08-14T04:31:01;1.42;;;1.33;;
40515;SDS011;26216;53.724;9.898;2022-08-14T04:33:27;1.90;;;1.35;;
40515;SDS011;26216;53.724;9.898;2022-08-14T04:35:53;2.15;;;1.42;;
40515;SDS011;26216;53.724;9.898;2022-08-14T04:38:20;2.00;;;1.60;;
40515;SDS011;26216;53.724;9.898;2022-08-14T04:41:05;1.73;;;1.50;;
40515;SDS011;26216;53.724;9.898;2022-08-14T04:43:50;1.92;;;1.50;;
40515;SDS011;26216;53.724;9.898;2022-08-14T04:46:18;2.13;;;1.40;;
40515;SDS011;26216;53.724;9.898;2022-08-14T04:48:44;3.50;;;1.85;;
40515;SDS011;26216;53.724;9.898;2022-08-14T04:51:11;1.83;;;1.55;;
40515;SDS011;26216;53.724;9.898;2022-08-14T04:53:40;2.35;;;1.50;;
40515;SDS011;26216;53.724;9.898;2022-08-14T04:56:08;2.40;;;1.58;;
40515;SDS011;26216;53.724;9.898;2022-08-14T04:58:36;2.60;;;1.73;;
40515;SDS011;26216;53.724;9.898;2022-08-14T05:01:04;4.03;;;1.63;;
40515;SDS011;26216;53.724;9.898;2022-08-14T05:03:32;1.60;;;1.30;;
40515;SDS011;26216;53.724;9.898;2022-08-14T05:06:01;2.75;;;1.50;;
40515;SDS011;26216;53.724;9.898;2022-08-14T05:08:35;1.50;;;1.40;;
40515;SDS011;26216;53.724;9.898;2022-08-14T05:11:03;2.30;;;1.45;;
40515;SDS011;26216;53.724;9.898;2022-08-14T05:13:31;2.10;;;1.60;;
40515;SDS011;26216;53.724;9.898;2022-08-14T05:15:58;2.53;;;1.77;;
40515;SDS011;26216;53.724;9.898;2022-08-14T05:18:29;1.88;;;1.42;;
40515;SDS011;26216;53.724;9.898;2022-08-14T05:21:00;3.63;;;1.70;;
40515;SDS011;26216;53.724;9.898;2022-08-14T05:23:28;1.55;;;1.40;;
40515;SDS011;26216;53.724;9.898;2022-08-14T05:25:57;3.45;;;1.40;;
40515;SDS011;26216;53.724;9.898;2022-08-14T05:28:27;1.65;;;1.20;;
40515;SDS011;26216;53.724;9.898;2022-08-14T05:30:55;1.80;;;1.42;;
40515;SDS011;26216;53.724;9.898;2022-08-14T05:33:23;2.78;;;1.60;;
40515;SDS011;26216;53.724;9.898;2022-08-14T05:35:52;3.22;;;1.60;;
40515;SDS011;26216;53.724;9.898;2022-08-14T05:38:32;1.83;;;1.40;;
40515;SDS011;26216;53.724;9.898;2022-08-14T05:41:00;3.95;;;1.70;;
40515;SDS011;26216;53.724;9.898;2022-08-14T05:46:10;1.45;;;1.30;;
40515;SDS011;26216;53.724;9.898;2022-08-14T05:48:38;2.80;;;1.65;;
40515;SDS011;26216;53.724;9.898;2022-08-14T05:51:08;1.88;;;1.40;;
40515;SDS011;26216;53.724;9.898;2022-08-14T05:53:34;1.80;;;1.40;;
40515;SDS011;26216;53.724;9.898;2022-08-14T05:56:00;4.80;;;1.50;;
40515;SDS011;26216;53.724;9.898;2022-08-14T05:58:26;2.13;;;1.40;;
40515;SDS011;26216;53.724;9.898;2022-08-14T06:00:52;3.75;;;2.22;;
40515;SDS011;26216;53.724;9.898;2022-08-14T06:03:19;1.50;;;1.13;;
40515;SDS011;26216;53.724;9.898;2022-08-14T06:05:47;2.35;;;1.45;;
40515;SDS011;26216;53.724;9.898;2022-08-14T06:08:19;2.28;;;1.45;;
40515;SDS011;26216;53.724;9.898;2022-08-14T06:10:45;1.98;;;1.40;;
40515;SDS011;26216;53.724;9.898;2022-08-14T06:13:12;1.48;;;1.15;;
40515;SDS011;26216;53.724;9.898;2022-08-14T06:15:38;1.50;;;1.30;;
40515;SDS011;26216;53.724;9.898;2022-08-14T06:18:06;2.90;;;1.58;;
40515;SDS011;26216;53.724;9.898;2022-08-14T06:20:32;2.22;;;1.50;;
40515;SDS011;26216;53.724;9.898;2022-08-14T06:22:58;2.15;;;1.38;;
40515;SDS011;26216;53.724;9.898;2022-08-14T06:25:24;1.98;;;1.60;;
40515;SDS011;26216;53.724;9.898;2022-08-14T06:27:51;1.58;;;1.30;;
40515;SDS011;26216;53.724;9.898;2022-08-14T06:30:18;2.83;;;1.20;;
40515;SDS011;26216;53.724;9.898;2022-08-14T06:32:46;2.17;;;1.38;;
40515;SDS011;26216;53.724;9.898;2022-08-14T06:35:13;2.78;;;1.30;;
40515;SDS011;26216;53.724;9.898;2022-08-14T06:40:08;1.15;;;1.00;;
40515;SDS011;26216;53.724;9.898;2022-08-14T06:42:34;1.55;;;1.30;;
40515;SDS011;26216;53.724;9.898;2022-08-14T06:45:01;1.80;;;1.42;;
40515;SDS011;26216;53.724;9.898;2022-08-14T06:47:26;2.33;;;1.52;;
40515;SDS011;26216;53.724;9.898;2022-08-14T06:49:52;1.65;;;1.17;;
40515;SDS011;26216;53.724;9.898;2022-08-14T06:52:25;2.75;;;1.45;;
40515;SDS011;26216;53.724;9.898;2022-08-14T06:54:51;2.22;;;1.23;;
40515;SDS011;26216;53.724;9.898;2022-08-14T06:57:17;1.73;;;1.30;;
40515;SDS011;26216;53.724;9.898;2022-08-14T06:59:43;2.20;;;1.17;;
40515;SDS011;26216;53.724;9.898;2022-08-14T07:02:09;1.70;;;1.25;;
40515;SDS011;26216;53.724;9.898;2022-08-14T07:04:53;2.30;;;1.27;;
40515;SDS011;26216;53.724;9.898;2022-08-14T07:07:38;2.55;;;1.58;;
40515;SDS011;26216;53.724;9.898;2022-08-14T07:10:06;1.55;;;1.27;;
40515;SDS011;26216;53.724;9.898;2022-08-14T07:12:33;2.17;;;1.38;;
40515;SDS011;26216;53.724;9.898;2022-08-14T07:14:59;1.65;;;1.30;;
40515;SDS011;26216;53.724;9.898;2022-08-14T07:17:25;1.98;;;1.40;;
40515;SDS011;26216;53.724;9.898;2022-08-14T07:19:51;1.25;;;1.08;;
40515;SDS011;26216;53.724;9.898;2022-08-14T07:22:17;1.75;;;1.23;;
40515;SDS011;26216;53.724;9.898;2022-08-14T07:24:43;2.38;;;1.38;;
40515;SDS011;26216;53.724;9.898;2022-08-14T07:27:09;1.70;;;1.38;;
40515;SDS011;26216;53.724;9.898;2022-08-14T07:29:35;2.00;;;1.48;;
40515;SDS011;26216;53.724;9.898;2022-08-14T07:32:01;1.65;;;1.45;;
40515;SDS011;26216;53.724;9.898;2022-08-14T07:34:27;2.28;;;1.40;;
40515;SDS011;26216;53.724;9.898;2022-08-14T07:36:53;1.92;;;1.30;;
40515;SDS011;26216;53.724;9.898;2022-08-14T07:39:19;3.83;;;1.75;;
40515;SDS011;26216;53.724;9.898;2022-08-14T07:41:45;1.40;;;1.15;;
40515;SDS011;26216;53.724;9.898;2022-08-14T07:44:11;1.98;;;1.40;;
40515;SDS011;26216;53.724;9.898;2022-08-14T07:46:38;2.10;;;1.45;;
40515;SDS011;26216;53.724;9.898;2022-08-14T07:49:05;2.05;;;1.42;;
40515;SDS011;26216;53.724;9.898;2022-08-14T07:51:33;2.03;;;1.25;;
40515;SDS011;26216;53.724;9.898;2022-08-14T07:53:58;1.90;;;1.23;;
40515;SDS011;26216;53.724;9.898;2022-08-14T07:56:24;3.03;;;1.52;;
40515;SDS011;26216;53.724;9.898;2022-08-14T07:58:52;2.05;;;1.58;;
40515;SDS011;26216;53.724;9.898;2022-08-14T08:01:18;2.40;;;1.30;;
40515;SDS011;26216;53.724;9.898;2022-08-14T08:03:46;2.05;;;1.70;;
40515;SDS011;26216;53.724;9.898;2022-08-14T08:06:14;1.90;;;1.40;;
40515;SDS011;26216;53.724;9.898;2022-08-14T08:08:41;2.55;;;1.80;;
40515;SDS011;26216;53.724;9.898;2022-08-14T08:11:08;2.53;;;1.63;;
40515;SDS011;26216;53.724;9.898;2022-08-14T08:13:36;3.10;;;1.75;;
40515;SDS011;26216;53.724;9.898;2022-08-14T08:16:06;2.05;;;1.40;;
40515;SDS011;26216;53.724;9.898;2022-08-14T08:18:33;2.25;;;1.70;;
40515;SDS011;26216;53.724;9.898;2022-08-14T08:20:59;2.17;;;1.60;;
40515;SDS011;26216;53.724;9.898;2022-08-14T08:23:26;1.67;;;1.40;;
40515;SDS011;26216;53.724;9.898;2022-08-14T08:25:54;3.75;;;1.40;;
40515;SDS011;26216;53.724;9.898;2022-08-14T08:28:23;3.00;;;1.70;;
40515;SDS011;26216;53.724;9.898;2022-08-14T08:30:55;1.92;;;1.30;;
40515;SDS011;26216;53.724;9.898;2022-08-14T08:33:24;2.65;;;1.40;;
40515;SDS011;26216;53.724;9.898;2022-08-14T08:35:52;4.22;;;1.73;;
40515;SDS011;26216;53.724;9.898;2022-08-14T08:38:22;2.83;;;1.75;;
40515;SDS011;26216;53.724;9.898;2022-08-14T08:40:49;2.20;;;1.55;;
40515;SDS011;26216;53.724;9.898;2022-08-14T08:43:22;1.83;;;1.55;;
40515;SDS011;26216;53.724;9.898;2022-08-14T08:48:20;1.70;;;1.30;;
40515;SDS011;26216;53.724;9.898;2022-08-14T08:50:53;2.53;;;1.70;;
40515;SDS011;26216;53.724;9.898;2022-08-14T08:53:31;2.03;;;1.80;;
40515;SDS011;26216;53.724;9.898;2022-08-14T08:55:58;1.63;;;1.40;;
40515;SDS011;26216;53.724;9.898;2022-08-14T08:58:24;3.47;;;1.92;;
40515;SDS011;26216;53.724;9.898;2022-08-14T09:00:54;3.15;;;1.95;;
40515;SDS011;26216;53.724;9.898;2022-08-14T09:03:23;3.03;;;1.75;;
40515;SDS011;26216;53.724;9.898;2022-08-14T09:05:55;2.33;;;1.80;;
40515;SDS011;26216;53.724;9.898;2022-08-14T09:08:29;3.78;;;2.03;;
40515;SDS011;26216;53.724;9.898;2022-08-14T09:10:57;1.60;;;1.40;;
40515;SDS011;26216;53.724;9.898;2022-08-14T09:13:33;2.30;;;1.90;;
40515;SDS011;26216;53.724;9.898;2022-08-14T09:15:59;1.90;;;1.80;;
40515;SDS011;26216;53.724;9.898;2022-08-14T09:18:26;2.33;;;1.88;;
40515;SDS011;26216;53.724;9.898;2022-08-14T09:20:53;2.40;;;2.00;;
40515;SDS011;26216;53.724;9.898;2022-08-14T09:23:20;3.20;;;2.17;;
40515;SDS011;26216;53.724;9.898;2022-08-14T09:25:47;1.80;;;1.70;;
40515;SDS011;26216;53.724;9.898;2022-08-14T09:28:15;2.60;;;2.00;;
40515;SDS011;26216;53.724;9.898;2022-08-14T09:30:50;2.92;;;2.22;;
40515;SDS011;26216;53.724;9.898;2022-08-14T09:38:50;3.72;;;2.45;;
40515;SDS011;26216;53.724;9.898;2022-08-14T09:44:40;6.22;;;2.30;;
40515;SDS011;26216;53.724;9.898;2022-08-14T09:47:46;2.72;;;1.95;;
40515;SDS011;26216;53.724;9.898;2022-08-14T09:50:28;2.60;;;2.10;;
40515;SDS011;26216;53.724;9.898;2022-08-14T09:53:09;4.10;;;2.05;;
40515;SDS011;26216;53.724;9.898;2022-08-14T09:55:36;4.95;;;2.45;;
40515;SDS011;26216;53.724;9.898;2022-08-14T09:58:13;3.60;;;2.45;;
40515;SDS011;26216;53.724;9.898;2022-08-14T10:00:50;2.70;;;2.35;;
40515;SDS011;26216;53.724;9.898;2022-08-14T10:03:27;4.03;;;2.58;;
40515;SDS011;26216;53.724;9.898;2022-08-14T10:06:05;4.35;;;2.38;;
40515;SDS011;26216;53.724;9.898;2022-08-14T10:08:40;3.45;;;2.72;;
40515;SDS011;26216;53.724;9.898;2022-08-14T10:13:47;3.33;;;2.03;;
40515;SDS011;26216;53.724;9.898;2022-08-14T10:16:17;3.35;;;2.13;;
40515;SDS011;26216;53.724;9.898;2022-08-14T10:18:43;3.63;;;2.42;;
40515;SDS011;26216;53.724;9.898;2022-08-14T10:21:15;3.20;;;2.22;;
40515;SDS011;26216;53.724;9.898;2022-08-14T10:23:43;2.40;;;2.03;;
40515;SDS011;26216;53.724;9.898;2022-08-14T10:26:15;2.50;;;2.30;;
40515;SDS011;26216;53.724;9.898;2022-08-14T10:28:44;2.30;;;2.10;;
40515;SDS011;26216;53.724;9.898;2022-08-14T10:31:18;2.80;;;2.17;;
40515;SDS011;26216;53.724;9.898;2022-08-14T10:34:07;3.03;;;2.65;;
40515;SDS011;26216;53.724;9.898;2022-08-14T10:36:38;3.42;;;2.90;;
40515;SDS011;26216;53.724;9.898;2022-08-14T10:39:17;2.88;;;2.22;;
40515;SDS011;26216;53.724;9.898;2022-08-14T10:41:58;2.53;;;2.20;;
40515;SDS011;26216;53.724;9.898;2022-08-14T10:44:36;2.75;;;2.30;;
40515;SDS011;26216;53.724;9.898;2022-08-14T10:47:05;2.92;;;2.40;;
40515;SDS011;26216;53.724;9.898;2022-08-14T10:49:37;2.70;;;2.10;;
40515;SDS011;26216;53.724;9.898;2022-08-14T10:52:18;3.20;;;2.50;;
40515;SDS011;26216;53.724;9.898;2022-08-14T10:54:46;2.60;;;2.17;;
40515;SDS011;26216;53.724;9.898;2022-08-14T10:57:25;3.05;;;2.75;;
40515;SDS011;26216;53.724;9.898;2022-08-14T10:59:55;11.80;;;3.00;;
40515;SDS011;26216;53.724;9.898;2022-08-14T11:02:26;3.47;;;2.40;;
40515;SDS011;26216;53.724;9.898;2022-08-14T11:05:02;3.53;;;3.03;;
40515;SDS011;26216;53.724;9.898;2022-08-14T11:07:34;7.05;;;2.88;;
40515;SDS011;26216;53.724;9.898;2022-08-14T11:10:06;3.10;;;2.80;;
40515;SDS011;26216;53.724;9.898;2022-08-14T11:12:47;3.28;;;2.55;;
40515;SDS011;26216;53.724;9.898;2022-08-14T11:15:19;3.33;;;2.55;;
40515;SDS011;26216;53.724;9.898;2022-08-14T11:17:48;3.65;;;3.00;;
40515;SDS011;26216;53.724;9.898;2022-08-14T11:20:15;3.00;;;2.65;;
40515;SDS011;26216;53.724;9.898;2022-08-14T11:25:14;3.85;;;2.75;;
40515;SDS011;26216;53.724;9.898;2022-08-14T11:27:44;3.17;;;2.72;;
40515;SDS011;26216;53.724;9.898;2022-08-14T11:30:12;3.22;;;2.50;;
40515;SDS011;26216;53.724;9.898;2022-08-14T11:32:47;2.72;;;2.40;;
40515;SDS011;26216;53.724;9.898;2022-08-14T11:35:17;3.13;;;2.50;;
40515;SDS011;26216;53.724;9.898;2022-08-14T11:37:48;3.08;;;2.58;;
40515;SDS011;26216;53.724;9.898;2022-08-14T11:40:18;2.88;;;2.45;;
40515;SDS011;26216;53.724;9.898;2022-08-14T11:42:47;3.38;;;2.47;;
40515;SDS011;26216;53.724;9.898;2022-08-14T11:45:15;3.05;;;2.47;;
40515;SDS011;26216;53.724;9.898;2022-08-14T11:47:42;5.10;;;2.80;;
40515;SDS011;26216;53.724;9.898;2022-08-14T11:50:13;4.28;;;2.80;;
40515;SDS011;26216;53.724;9.898;2022-08-14T11:52:44;3.22;;;2.40;;
40515;SDS011;26216;53.724;9.898;2022-08-14T11:55:12;3.78;;;2.60;;
40515;SDS011;26216;53.724;9.898;2022-08-14T11:57:39;3.40;;;3.00;;
40515;SDS011;26216;53.724;9.898;2022-08-14T12:00:09;3.00;;;2.55;;
40515;SDS011;26216;53.724;9.898;2022-08-14T12:02:51;3.25;;;2.90;;
40515;SDS011;26216;53.724;9.898;2022-08-14T12:05:32;3.55;;;2.72;;
40515;SDS011;26216;53.724;9.898;2022-08-14T12:08:04;3.42;;;2.38;;
40515;SDS011;26216;53.724;9.898;2022-08-14T12:10:34;2.95;;;2.58;;
40515;SDS011;26216;53.724;9.898;2022-08-14T12:13:13;2.83;;;2.53;;
40515;SDS011;26216;53.724;9.898;2022-08-14T12:15:41;8.00;;;3.03;;
40515;SDS011;26216;53.724;9.898;2022-08-14T12:18:09;3.15;;;2.85;;
40515;SDS011;26216;53.724;9.898;2022-08-14T12:20:37;3.40;;;3.08;;
40515;SDS011;26216;53.724;9.898;2022-08-14T12:23:22;4.65;;;3.13;;
40515;SDS011;26216;53.724;9.898;2022-08-14T12:26:00;3.42;;;2.88;;
40515;SDS011;26216;53.724;9.898;2022-08-14T12:28:32;3.63;;;2.92;;
40515;SDS011;26216;53.724;9.898;2022-08-14T12:30:58;3.13;;;2.83;;
40515;SDS011;26216;53.724;9.898;2022-08-14T12:33:30;5.85;;;3.08;;
40515;SDS011;26216;53.724;9.898;2022-08-14T12:35:59;4.75;;;3.15;;
40515;SDS011;26216;53.724;9.898;2022-08-14T12:41:00;3.25;;;2.60;;
40515;SDS011;26216;53.724;9.898;2022-08-14T12:43:30;5.33;;;2.93;;
40515;SDS011;26216;53.724;9.898;2022-08-14T12:45:58;3.38;;;2.90;;
40515;SDS011;26216;53.724;9.898;2022-08-14T12:48:24;2.97;;;2.70;;
40515;SDS011;26216;53.724;9.898;2022-08-14T12:50:52;3.35;;;2.75;;
40515;SDS011;26216;53.724;9.898;2022-08-14T12:53:19;3.63;;;3.17;;
40515;SDS011;26216;53.724;9.898;2022-08-14T12:55:46;2.83;;;2.63;;
40515;SDS011;26216;53.724;9.898;2022-08-14T12:58:26;5.15;;;2.65;;
40515;SDS011;26216;53.724;9.898;2022-08-14T13:00:53;3.92;;;2.35;;
40515;SDS011;26216;53.724;9.898;2022-08-14T13:03:24;5.20;;;3.03;;
40515;SDS011;26216;53.724;9.898;2022-08-14T13:05:52;3.88;;;2.78;;
40515;SDS011;26216;53.724;9.898;2022-08-14T13:08:19;3.88;;;2.90;;
40515;SDS011;26216;53.724;9.898;2022-08-14T13:10:49;4.28;;;3.15;;
40515;SDS011;26216;53.724;9.898;2022-08-14T13:13:16;3.40;;;2.90;;
40515;SDS011;26216;53.724;9.898;2022-08-14T13:15:44;3.58;;;2.80;;
40515;SDS011;26216;53.724;9.898;2022-08-14T13:18:15;3.45;;;2.75;;
40515;SDS011;26216;53.724;9.898;2022-08-14T13:20:41;4.70;;;3.00;;
40515;SDS011;26216;53.724;9.898;2022-08-14T13:23:10;3.65;;;3.00;;
40515;SDS011;26216;53.724;9.898;2022-08-14T13:25:39;4.90;;;3.08;;
40515;SDS011;26216;53.724;9.898;2022-08-14T13:28:08;3.72;;;2.72;;
40515;SDS011;26216;53.724;9.898;2022-08-14T13:30:38;3.53;;;2.92;;
40515;SDS011;26216;53.724;9.898;2022-08-14T13:33:09;2.97;;;2.53;;
40515;SDS011;26216;53.724;9.898;2022-08-14T13:35:35;3.13;;;2.83;;
40515;SDS011;26216;53.724;9.898;2022-08-14T13:38:02;4.47;;;2.85;;
40515;SDS011;26216;53.724;9.898;2022-08-14T13:40:28;3.45;;;3.10;;
40515;SDS011;26216;53.724;9.898;2022-08-14T13:42:54;3.95;;;3.30;;
40515;SDS011;26216;53.724;9.898;2022-08-14T13:45:20;3.75;;;2.60;;
40515;SDS011;26216;53.724;9.898;2022-08-14T13:47:48;4.18;;;2.90;;
40515;SDS011;26216;53.724;9.898;2022-08-14T13:50:16;3.72;;;2.90;;
40515;SDS011;26216;53.724;9.898;2022-08-14T13:52:48;3.40;;;2.55;;
40515;SDS011;26216;53.724;9.898;2022-08-14T13:55:21;6.35;;;3.20;;
40515;SDS011;26216;53.724;9.898;2022-08-14T13:57:52;3.40;;;2.45;;
40515;SDS011;26216;53.724;9.898;2022-08-14T14:00:24;4.28;;;3.08;;
40515;SDS011;26216;53.724;9.898;2022-08-14T14:02:50;4.90;;;2.97;;
40515;SDS011;26216;53.724;9.898;2022-08-14T14:05:17;5.45;;;2.97;;
40515;SDS011;26216;53.724;9.898;2022-08-14T14:07:45;4.07;;;2.83;;
40515;SDS011;26216;53.724;9.898;2022-08-14T14:10:13;4.03;;;2.70;;
40515;SDS011;26216;53.724;9.898;2022-08-14T14:12:41;6.40;;;3.53;;
40515;SDS011;26216;53.724;9.898;2022-08-14T14:15:09;2.83;;;2.38;;
40515;SDS011;26216;53.724;9.898;2022-08-14T14:17:38;3.13;;;2.40;;
40515;SDS011;26216;53.724;9.898;2022-08-14T14:20:06;4.82;;;3.10;;
40515;SDS011;26216;53.724;9.898;2022-08-14T14:22:42;5.03;;;3.15;;
40515;SDS011;26216;53.724;9.898;2022-08-14T14:25:11;7.13;;;3.45;;
40515;SDS011;26216;53.724;9.898;2022-08-14T14:27:41;4.15;;;2.90;;
40515;SDS011;26216;53.724;9.898;2022-08-14T14:30:13;6.15;;;3.08;;
40515;SDS011;26216;53.724;9.898;2022-08-14T14:32:41;5.80;;;3.33;;
40515;SDS011;26216;53.724;9.898;2022-08-14T14:35:10;5.10;;;2.72;;
40515;SDS011;26216;53.724;9.898;2022-08-14T14:37:42;7.50;;;3.60;;
40515;SDS011;26216;53.724;9.898;2022-08-14T14:40:10;6.78;;;3.42;;
40515;SDS011;26216;53.724;9.898;2022-08-14T14:42:42;5.55;;;3.35;;
40515;SDS011;26216;53.724;9.898;2022-08-14T14:45:15;3.80;;;3.20;;
40515;SDS011;26216;53.724;9.898;2022-08-14T14:47:44;4.07;;;2.90;;
40515;SDS011;26216;53.724;9.898;2022-08-14T14:50:12;4.97;;;3.08;;
40515;SDS011;26216;53.724;9.898;2022-08-14T14:52:39;6.15;;;3.17;;
40515;SDS011;26216;53.724;9.898;2022-08-14T14:55:07;3.30;;;3.00;;
40515;SDS011;26216;53.724;9.898;2022-08-14T14:57:36;2.95;;;2.65;;
40515;SDS011;26216;53.724;9.898;2022-08-14T15:00:04;2.70;;;2.50;;
40515;SDS011;26216;53.724;9.898;2022-08-14T15:02:33;3.60;;;2.88;;
40515;SDS011;26216;53.724;9.898;2022-08-14T15:05:06;3.22;;;2.92;;
40515;SDS011;26216;53.724;9.898;2022-08-14T15:07:33;3.20;;;2.65;;
40515;SDS011;26216;53.724;9.898;2022-08-14T15:10:01;3.60;;;2.75;;
40515;SDS011;26216;53.724;9.898;2022-08-14T15:12:28;4.25;;;2.90;;
40515;SDS011;26216;53.724;9.898;2022-08-14T15:14:54;3.03;;;2.72;;
40515;SDS011;26216;53.724;9.898;2022-08-14T15:17:24;3.20;;;2.90;;
40515;SDS011;26216;53.724;9.898;2022-08-14T15:19:50;3.17;;;2.75;;
40515;SDS011;26216;53.724;9.898;2022-08-14T15:22:18;3.55;;;2.50;;
40515;SDS011;26216;53.724;9.898;2022-08-14T15:24:44;2.78;;;2.30;;
40515;SDS011;26216;53.724;9.898;2022-08-14T15:27:10;2.47;;;2.08;;